Time;durP1;ratioP1;P1;durP2;ratioP2;P2;SDS_P1;SDS_P2;PMS_P1;PMS_P2;Temp;Humidity;BMP_temperature;BMP_pressure;BME280_temperature;BME280_humidity;BME280_pressure;Samples;Min_cycle;Max_cycle;Signal;HPM_P1;HPM_P2
2022/01/18 00:01:22;;;;;;;33.65;18.77;;;;;;;6.88;76.65;103319.78;5049481;28;20125;-60
2022/01/18 00:03:50;;;;;;;29.85;15.43;;;;;;;6.69;76.54;103318.91;5034610;28;20061;-62
2022/01/18 00:06:17;;;;;;;35.28;14.52;;;;;;;6.34;77.48;103339.63;5040076;28;20045;-63
2022/01/18 00:08:44;;;;;;;31.30;13.65;;;;;;;6.46;77.63;103333.22;5034146;28;20503;-61
2022/01/18 00:11:13;;;;;;;32.58;13.25;;;;;;;6.54;76.92;103315.66;5034594;28;20084;-61
2022/01/18 00:13:43;;;;;;;30.80;13.00;;;;;;;6.48;77.24;103325.63;5033744;28;20065;-62
2022/01/18 00:19:23;;;;;;;31.17;12.82;;;;;;;6.48;77.74;103324.78;4992184;28;20057;-62
2022/01/18 00:22:10;;;;;;;31.13;12.88;;;;;;;6.34;77.32;103318.59;4992369;28;20547;-62
2022/01/18 00:24:42;;;;;;;31.33;12.65;;;;;;;6.42;77.65;103325.66;5018849;28;20064;-63
2022/01/18 00:27:13;;;;;;;31.50;13.95;;;;;;;6.61;76.94;103325.50;5033250;28;20052;-62
2022/01/18 00:30:45;;;;;;;33.90;13.57;;;;;;;6.23;77.96;103316.56;5034065;28;20145;-62
2022/01/18 00:35:05;;;;;;;33.78;14.55;;;;;;;6.42;77.15;103323.78;5034473;28;20049;-62
2022/01/18 00:37:36;;;;;;;31.80;15.00;;;;;;;6.53;76.59;103301.16;5034499;28;20049;-62
2022/01/18 00:40:05;;;;;;;28.23;14.05;;;;;;;6.40;77.17;103294.94;5034171;28;20050;-62
2022/01/18 00:42:33;;;;;;;23.80;13.75;;;;;;;6.52;77.15;103307.69;5033122;28;20061;-63
2022/01/18 00:45:00;;;;;;;40.22;17.90;;;;;;;6.63;76.72;103306.97;5034421;28;20487;-63
2022/01/18 00:47:28;;;;;;;32.15;15.73;;;;;;;6.49;76.70;103297.19;5032657;28;20060;-62
2022/01/18 00:50:03;;;;;;;31.65;15.32;;;;;;;6.49;77.11;103305.41;5032717;28;20061;-62
2022/01/18 00:52:34;;;;;;;33.75;15.20;;;;;;;6.67;76.92;103308.19;5033199;28;20057;-62
2022/01/18 00:55:03;;;;;;;32.15;15.20;;;;;;;6.59;76.68;103299.44;5028351;28;20049;-62
2022/01/18 00:57:30;;;;;;;31.58;16.65;;;;;;;6.27;78.16;103301.38;5034376;28;20053;-63
2022/01/18 00:59:57;;;;;;;39.10;17.17;;;;;;;6.49;77.92;103305.41;5034315;28;20386;-62
2022/01/18 01:02:25;;;;;;;34.75;18.83;;;;;;;6.59;77.30;103296.69;5034217;28;20064;-62
2022/01/18 01:04:53;;;;;;;29.90;16.95;;;;;;;6.49;77.52;103297.19;5033763;28;20500;-62
2022/01/18 01:07:22;;;;;;;36.85;18.88;;;;;;;6.07;79.19;103311.59;5034766;28;20064;-62
2022/01/18 01:09:50;;;;;;;41.22;18.63;;;;;;;6.28;79.25;103300.28;5037610;28;20069;-62
2022/01/18 01:12:19;;;;;;;35.20;18.00;;;;;;;6.24;78.37;103301.78;5037557;28;20091;-62
2022/01/18 01:14:50;;;;;;;37.92;20.30;;;;;;;6.02;79.76;103310.56;5020314;28;20056;-63
2022/01/18 01:36:49;;;;;;;35.65;18.88;;;;;;;5.42;83.68;103296.34;5037651;28;20054;-62
2022/01/18 01:42:01;;;;;;;36.03;18.58;;;;;;;5.51;81.52;103297.78;5036508;28;20050;-61
2022/01/18 01:44:41;;;;;;;42.08;19.70;;;;;;;5.58;82.27;103295.84;5025325;28;20090;-62
2022/01/18 01:47:10;;;;;;;42.03;20.08;;;;;;;5.47;82.24;103310.19;5025958;28;20064;-63
2022/01/18 01:49:39;;;;;;;49.10;20.83;;;;;;;5.28;83.13;103304.81;5017475;28;20050;-63
2022/01/18 01:52:09;;;;;;;39.10;20.25;;;;;;;5.39;82.98;103304.97;5016172;28;20130;-62
2022/01/18 01:54:38;;;;;;;40.50;20.65;;;;;;;5.07;84.35;103311.41;5017374;28;20050;-61
2022/01/18 01:57:06;;;;;;;49.60;21.70;;;;;;;5.08;84.46;103309.50;5019849;28;20061;-63
2022/01/18 01:59:33;;;;;;;46.17;22.95;;;;;;;4.92;85.25;103316.25;5036818;28;20497;-61
2022/01/18 02:02:04;;;;;;;49.13;24.35;;;;;;;4.77;86.22;103318.38;5028938;28;20041;-64
2022/01/18 02:04:32;;;;;;;61.67;26.13;;;;;;;4.87;86.46;103312.47;5019063;28;20516;-61
2022/01/18 02:06:59;;;;;;;53.97;25.58;;;;;;;4.76;86.44;103319.41;5032349;28;20060;-62
2022/01/18 02:09:26;;;;;;;52.85;25.77;;;;;;;4.73;86.74;103321.72;5036542;28;20045;-62
2022/01/18 02:11:56;;;;;;;53.40;27.52;;;;;;;4.82;86.11;103315.84;5015699;28;20054;-61
2022/01/18 02:14:25;;;;;;;57.13;27.23;;;;;;;4.51;87.55;103316.53;5036072;28;20053;-62
2022/01/18 02:22:24;;;;;;;43.85;22.20;;;;;;;4.82;87.12;103320.47;5034274;28;20054;-62
2022/01/18 02:24:52;;;;;;;45.83;21.80;;;;;;;4.69;87.44;103315.03;5036904;28;20057;-62
2022/01/18 02:27:19;;;;;;;46.88;20.83;;;;;;;4.66;87.63;103319.00;5035553;28;20060;-61
2022/01/18 02:29:46;;;;;;;51.63;22.17;;;;;;;4.57;88.01;103312.09;5036382;28;20056;-61
2022/01/18 02:32:14;;;;;;;43.20;20.77;;;;;;;4.57;88.26;103314.81;5017115;28;20674;-63
2022/01/18 02:34:41;;;;;;;53.38;22.42;;;;;;;4.51;88.58;103316.53;5016674;28;20046;-62
2022/01/18 02:37:10;;;;;;;45.60;23.58;;;;;;;4.41;88.64;103323.44;5022386;28;20045;-62
2022/01/18 02:39:39;;;;;;;50.42;23.98;;;;;;;4.51;89.10;103312.94;5034818;28;20057;-62
2022/01/18 02:42:07;;;;;;;57.13;23.70;;;;;;;4.34;89.34;103308.97;5034274;28;20054;-62
2022/01/18 02:44:35;;;;;;;53.03;23.52;;;;;;;4.27;89.35;103317.09;5036289;28;20738;-61
2022/01/18 02:47:04;;;;;;;49.42;24.30;;;;;;;4.30;89.16;103310.41;5034902;28;20145;-62
2022/01/18 02:49:32;;;;;;;44.00;23.20;;;;;;;4.50;88.90;103300.31;5022846;28;20050;-62
2022/01/18 02:52:00;;;;;;;44.20;22.50;;;;;;;4.24;88.57;103308.50;5016350;28;20046;-62
2022/01/18 02:54:28;;;;;;;45.70;22.08;;;;;;;4.03;89.62;103314.97;5025898;28;20064;-61
2022/01/18 02:57:00;;;;;;;46.22;23.20;;;;;;;3.64;91.62;103314.03;5018445;28;20045;-62
2022/01/18 03:05:14;;;;;;;42.90;21.83;;;;;;;4.21;91.13;103298.00;5035749;28;20060;-62
2022/01/18 03:07:42;;;;;;;45.45;23.80;;;;;;;4.10;90.51;103299.47;5018434;28;20045;-60
2022/01/18 03:10:11;;;;;;;45.00;23.42;;;;;;;4.42;89.84;103301.41;5035285;28;20050;-62
2022/01/18 03:12:40;;;;;;;;;;;;;;;4.34;88.78;103304.31;5034604;28;20045;-62
2022/01/18 03:15:08;;;;;;;43.33;22.67;;;;;;;4.28;88.46;103293.41;5034324;28;19921;-63
2022/01/18 03:17:35;;;;;;;48.38;24.10;;;;;;;4.35;89.35;103291.53;5035614;28;20057;-62
2022/01/18 03:20:05;;;;;;;48.85;23.67;;;;;;;4.44;88.20;103282.09;5034118;28;20061;-61
2022/01/18 03:22:33;;;;;;;52.13;24.25;;;;;;;4.16;88.72;103276.00;5033898;28;20355;-62
2022/01/18 03:25:13;;;;;;;47.03;24.20;;;;;;;3.66;91.18;103280.06;5031312;28;20053;-62
2022/01/18 03:30:27;;;;;;;44.63;22.60;;;;;;;3.81;91.56;103258.97;5034001;28;20054;-63
2022/01/18 03:32:54;;;;;;;55.20;24.48;;;;;;;3.54;92.71;103280.91;5034200;28;20056;-62
2022/01/18 03:35:23;;;;;;;55.17;23.80;;;;;;;3.60;93.40;103274.63;5035054;28;20053;-62
2022/01/18 03:37:51;;;;;;;46.15;23.30;;;;;;;3.69;92.77;103263.34;5035018;28;20433;-61
2022/01/18 03:40:18;;;;;;;49.85;21.95;;;;;;;3.43;93.40;103268.69;5033457;28;20052;-62
2022/01/18 03:42:47;;;;;;;46.08;23.17;;;;;;;3.61;93.14;103271.69;5035074;28;20053;-64
2022/01/18 03:45:23;;;;;;;47.80;22.88;;;;;;;3.73;93.23;103271.94;5032343;28;20052;-61
2022/01/18 03:47:51;;;;;;;44.22;22.77;;;;;;;4.07;92.25;103271.78;5033491;28;20060;-63
2022/01/18 03:50:19;;;;;;;46.25;22.58;;;;;;;3.98;91.58;103279.31;5017462;28;20049;-64
2022/01/18 03:52:47;;;;;;;46.53;22.38;;;;;;;4.05;91.09;103268.41;5017618;28;20049;-63
2022/01/18 03:55:17;;;;;;;48.95;23.70;;;;;;;3.98;90.59;103283.94;5034783;28;20054;-61
2022/01/18 03:57:45;;;;;;;45.92;22.83;;;;;;;3.96;91.05;103284.13;5034562;28;20559;-62
2022/01/18 04:00:15;;;;;;;49.63;22.77;;;;;;;4.22;90.52;103264.25;5034527;28;20061;-62
2022/01/18 04:02:43;;;;;;;;;;;;;;;3.92;90.48;103265.69;5035088;28;20420;-61
2022/01/18 04:05:11;;;;;;;42.22;21.15;;;;;;;4.18;90.71;103269.28;5034818;28;19928;-62
2022/01/18 04:07:41;;;;;;;45.33;22.20;;;;;;;4.48;89.77;103262.34;5033709;28;20069;-63
2022/01/18 04:10:08;;;;;;;43.47;22.42;;;;;;;4.51;88.36;103259.22;5034190;28;20053;-63
2022/01/18 04:12:36;;;;;;;57.20;23.52;;;;;;;3.94;90.25;103271.78;5034320;28;20053;-62
2022/01/18 04:15:09;;;;;;;46.25;23.42;;;;;;;4.22;90.75;103264.25;5033691;28;20049;-63
2022/01/18 04:26:02;;;;;;;55.60;27.42;;;;;;;4.00;91.95;103257.28;5014606;28;20049;-61
2022/01/18 04:31:05;;;;;;;53.15;26.27;;;;;;;3.77;92.74;103260.41;5032981;28;20045;-61
2022/01/18 04:33:35;;;;;;;61.45;28.52;;;;;;;3.93;92.77;103259.16;5034291;28;20049;-61
2022/01/18 04:36:04;;;;;;;58.95;27.33;;;;;;;3.87;93.31;103266.28;5034059;28;20045;-62
2022/01/18 04:38:31;;;;;;;61.83;26.73;;;;;;;3.70;93.56;103269.59;5034427;28;20046;-62
2022/01/18 04:41:04;;;;;;;56.72;26.35;;;;;;;3.74;93.81;103269.00;5033873;28;20050;-62
2022/01/18 04:44:07;;;;;;;59.35;27.50;;;;;;;4.06;93.95;103267.38;5037421;28;20053;-62
2022/01/18 04:49:21;;;;;;;65.18;29.08;;;;;;;3.55;94.20;103250.72;5038218;28;20045;-62
2022/01/18 04:51:48;;;;;;;60.40;28.08;;;;;;;3.63;94.89;103255.97;5038047;28;20537;-62
2022/01/18 04:54:16;;;;;;;64.22;30.15;;;;;;;3.48;95.39;103249.84;5037808;28;20084;-61
2022/01/18 04:59:12;;;;;;;75.78;32.80;;;;;;;3.23;98.42;103248.69;5036669;28;20068;-61
2022/01/18 05:01:41;;;;;;;77.47;31.73;;;;;;;3.12;98.87;103250.13;5036621;28;20041;-60
2022/01/18 05:04:09;;;;;;;79.15;32.63;;;;;;;3.19;99.06;103263.78;5037841;28;20053;-62
2022/01/18 05:06:37;;;;;;;84.45;33.42;;;;;;;3.05;99.50;103260.13;5037950;28;20435;-62
2022/01/18 05:09:10;;;;;;;81.65;33.20;;;;;;;3.17;99.86;103252.25;5035884;28;20192;-64
2022/01/18 05:11:48;;;;;;;75.07;33.10;;;;;;;3.13;100.00;103259.13;5037636;28;20053;-62
2022/01/18 05:14:32;;;;;;;72.97;33.15;;;;;;;3.64;99.91;103252.22;5037744;28;20085;-62
2022/01/18 05:17:11;;;;;;;75.57;32.92;;;;;;;3.23;98.41;103260.44;5036462;28;20060;-62
2022/01/18 05:19:47;;;;;;;85.80;34.47;;;;;;;3.17;98.97;103269.41;5037746;28;20045;-61
2022/01/18 05:25:00;;;;;;;78.20;33.60;;;;;;;3.47;99.10;103256.34;5037600;28;20614;-60
2022/01/18 05:27:28;;;;;;;81.15;33.40;;;;;;;3.40;99.21;103252.75;5019685;28;20416;-61
2022/01/18 05:29:55;;;;;;;75.28;33.30;;;;;;;3.71;99.05;103253.06;5036065;28;20056;-61
2022/01/18 05:32:22;;;;;;;65.45;29.80;;;;;;;3.84;97.76;103250.34;5037243;28;20072;-61
2022/01/18 05:34:50;;;;;;;71.68;30.83;;;;;;;4.03;96.38;103255.00;5037293;28;20049;-62
2022/01/18 05:37:17;;;;;;;67.57;30.50;;;;;;;4.10;95.31;103246.81;5037532;28;20045;-62
2022/01/18 05:39:44;;;;;;;62.20;30.33;;;;;;;4.34;94.07;103244.28;5035745;28;20046;-62
2022/01/18 05:42:12;;;;;;;64.13;28.77;;;;;;;4.39;93.53;103244.50;5035917;28;20046;-63
2022/01/18 05:44:39;;;;;;;68.75;27.88;;;;;;;4.21;93.83;103240.75;5037319;28;20068;-62
2022/01/18 05:47:06;;;;;;;68.35;28.52;;;;;;;4.25;93.13;103237.38;5036309;28;20051;-62
2022/01/18 05:49:33;;;;;;;65.57;26.20;;;;;;;4.47;92.62;103233.38;5037309;28;20065;-61
2022/01/18 05:52:01;;;;;;;62.25;27.35;;;;;;;4.42;92.13;103235.91;5035892;28;20053;-61
2022/01/18 05:54:28;;;;;;;64.97;27.65;;;;;;;4.29;92.10;103243.25;5033869;28;20493;-61
2022/01/18 05:56:55;;;;;;;62.10;27.23;;;;;;;4.41;92.38;103242.41;5037148;28;20412;-60
2022/01/18 05:59:24;;;;;;;66.30;29.17;;;;;;;4.51;91.85;103242.00;5037032;28;20053;-63
2022/01/18 06:02:01;;;;;;;59.35;26.98;;;;;;;4.42;91.52;103248.72;5036914;28;20060;-62
2022/01/18 06:07:15;;;;;;;61.00;26.27;;;;;;;3.76;94.64;103245.13;5036851;28;20061;-62
2022/01/18 06:09:42;;;;;;;60.38;25.60;;;;;;;3.64;95.63;103246.75;5036975;28;20046;-64
2022/01/18 06:12:10;;;;;;;55.30;24.25;;;;;;;3.57;96.53;103236.88;5036673;28;20065;-63
2022/01/18 06:14:37;;;;;;;62.10;25.88;;;;;;;3.57;96.38;103253.22;5036837;28;20052;-62
2022/01/18 06:17:05;;;;;;;60.17;25.77;;;;;;;3.57;96.96;103247.78;5037123;28;20053;-62
2022/01/18 06:19:32;;;;;;;60.53;24.17;;;;;;;3.74;96.67;103249.94;5037024;28;20416;-61
2022/01/18 06:22:00;;;;;;;48.42;22.83;;;;;;;3.79;95.71;103255.59;5035291;28;20076;-63
2022/01/18 06:24:27;;;;;;;52.90;24.33;;;;;;;3.63;96.34;103266.88;5026603;28;20062;-62
2022/01/18 06:27:07;;;;;;;49.60;23.52;;;;;;;3.95;95.89;103268.00;5015546;28;20073;-62
2022/01/18 06:29:34;;;;;;;53.35;23.42;;;;;;;3.86;95.34;103263.78;5015776;28;20057;-63
2022/01/18 06:32:03;;;;;;;51.35;22.63;;;;;;;3.61;95.90;103266.22;5016983;28;20042;-63
2022/01/18 06:34:31;;;;;;;53.10;23.17;;;;;;;3.72;95.90;103271.09;5018719;28;20061;-62
2022/01/18 06:36:58;;;;;;;47.35;21.35;;;;;;;3.62;96.57;103259.75;5034729;28;20049;-64
2022/01/18 06:39:28;;;;;;;;;;;;;;;3.63;96.18;103258.69;5050189;28;20432;-63
2022/01/18 06:41:56;;;;;;;52.95;19.83;;;;;;;3.88;96.04;103264.41;5030863;28;19934;-63
2022/01/18 06:44:24;;;;;;;43.55;19.60;;;;;;;3.96;94.52;103265.06;5034804;28;20053;-62
2022/01/18 06:46:52;;;;;;;47.42;20.70;;;;;;;4.13;94.46;103268.22;5035075;28;20049;-63
2022/01/18 06:49:20;;;;;;;50.00;21.52;;;;;;;4.28;93.07;103266.97;5036085;28;20383;-62
2022/01/18 06:51:47;;;;;;;46.03;20.67;;;;;;;4.47;91.76;103268.84;5035900;28;20505;-63
2022/01/18 06:54:17;;;;;;;41.63;19.42;;;;;;;4.34;91.77;103268.84;5034737;28;20137;-63
2022/01/18 06:56:48;;;;;;;41.55;20.52;;;;;;;4.25;90.80;103275.56;5032097;28;20480;-62
2022/01/18 06:59:16;;;;;;;42.47;19.75;;;;;;;3.90;92.92;103271.34;5026620;28;20060;-62
2022/01/18 07:01:44;;;;;;;40.40;19.13;;;;;;;4.14;92.72;103267.16;5033867;28;20369;-63
2022/01/18 07:04:12;;;;;;;38.83;18.27;;;;;;;4.23;91.92;103272.22;5035473;28;20056;-61
2022/01/18 07:06:40;;;;;;;46.85;20.02;;;;;;;4.42;91.28;103276.84;5034318;28;20053;-62
2022/01/18 07:09:07;;;;;;;48.35;19.15;;;;;;;4.18;91.63;103274.75;5035101;28;20133;-63
2022/01/18 07:11:34;;;;;;;44.80;19.27;;;;;;;4.01;92.10;103270.72;5035672;28;20045;-64
2022/01/18 07:14:06;;;;;;;50.20;21.65;;;;;;;3.96;92.44;103270.50;5030828;28;20115;-64
2022/01/18 07:16:35;;;;;;;50.13;21.95;;;;;;;4.05;92.93;103261.09;5030253;28;20048;-65
2022/01/18 07:19:03;;;;;;;48.42;20.77;;;;;;;4.68;92.21;103262.31;5030629;28;20045;-64
2022/01/18 07:21:30;;;;;;;51.67;22.25;;;;;;;4.66;92.63;103261.69;5034076;28;20379;-63
2022/01/18 07:24:05;;;;;;;58.20;24.33;;;;;;;4.64;93.58;103261.06;5030002;28;20045;-64
2022/01/18 07:26:33;;;;;;;59.35;24.92;;;;;;;4.68;94.43;103259.59;5028200;28;20641;-63
2022/01/18 07:29:00;;;;;;;57.67;26.20;;;;;;;4.20;92.34;103258.16;5019560;28;20064;-63
2022/01/18 07:31:27;;;;;;;64.65;26.23;;;;;;;4.23;92.81;103255.84;5033446;28;20053;-61
2022/01/18 07:33:55;;;;;;;59.15;24.08;;;;;;;3.90;93.23;103263.16;5034271;28;20419;-60
2022/01/18 07:36:22;;;;;;;58.20;25.20;;;;;;;3.75;94.36;103246.13;5034456;28;20056;-60
2022/01/18 07:38:49;;;;;;;58.70;24.85;;;;;;;4.13;93.25;103247.22;5032847;28;20510;-61
2022/01/18 07:41:17;;;;;;;67.00;26.67;;;;;;;3.97;93.18;103242.22;5023168;28;20435;-62
2022/01/18 07:43:44;;;;;;;65.03;25.35;;;;;;;4.00;92.95;103252.69;5032648;28;20049;-62
2022/01/18 07:46:12;;;;;;;57.70;25.95;;;;;;;3.96;92.90;103247.84;5033744;28;20053;-60
2022/01/18 07:48:39;;;;;;;59.70;25.98;;;;;;;3.89;93.22;103238.84;5032910;28;20385;-64
2022/01/18 07:51:07;;;;;;;53.53;25.25;;;;;;;4.00;92.68;103239.06;5033466;28;20417;-64
2022/01/18 07:53:35;;;;;;;68.78;28.02;;;;;;;3.97;92.68;103247.66;5032045;28;20037;-65
2022/01/18 07:56:02;;;;;;;67.95;27.35;;;;;;;4.13;92.34;103246.41;5012939;28;20065;-62
2022/01/18 07:58:30;;;;;;;57.30;26.38;;;;;;;4.04;92.23;103244.94;5030608;28;20073;-63
2022/01/18 08:00:57;;;;;;;64.47;26.75;;;;;;;4.02;92.64;103247.88;5035067;28;20050;-61
2022/01/18 08:03:28;;;;;;;56.63;26.02;;;;;;;4.07;92.00;103247.22;5032686;28;20057;-61
2022/01/18 08:05:56;;;;;;;52.78;25.95;;;;;;;3.94;92.86;103242.59;5030976;28;20048;-62
2022/01/18 08:08:26;;;;;;;62.85;26.08;;;;;;;3.81;92.95;103236.31;5031809;28;20053;-61
2022/01/18 08:10:54;;;;;;;56.75;25.30;;;;;;;3.90;92.83;103233.19;5032333;28;20072;-59
2022/01/18 08:13:29;;;;;;;58.85;26.40;;;;;;;3.78;92.98;103226.66;5029808;28;20038;-62
2022/01/18 08:16:09;;;;;;;52.78;24.52;;;;;;;3.78;93.42;103223.94;5030944;28;20045;-61
2022/01/18 08:18:37;;;;;;;60.30;24.65;;;;;;;3.90;93.06;103230.47;5030746;28;20061;-62
2022/01/18 08:21:05;;;;;;;61.72;29.42;;;;;;;4.20;92.40;103219.97;5031890;28;20053;-61
2022/01/18 08:23:32;;;;;;;59.28;25.95;;;;;;;4.45;91.51;103227.28;5032245;28;20048;-61
2022/01/18 08:26:00;;;;;;;50.67;23.40;;;;;;;4.36;90.39;103224.97;5032385;28;20053;-61
2022/01/18 08:28:27;;;;;;;61.45;27.05;;;;;;;4.63;89.82;103217.59;5025069;28;20085;-62
2022/01/18 08:30:55;;;;;;;53.03;23.08;;;;;;;4.54;89.42;103222.44;5031641;28;20051;-61
2022/01/18 08:33:24;;;;;;;51.75;23.70;;;;;;;4.35;89.37;103221.44;5023506;28;20045;-62
2022/01/18 08:35:51;;;;;;;48.42;22.58;;;;;;;4.59;89.78;103228.09;5026652;28;20102;-62
2022/01/18 08:38:19;;;;;;;53.83;22.98;;;;;;;4.54;89.13;103231.47;5030718;28;20042;-62
2022/01/18 08:40:46;;;;;;;55.80;23.02;;;;;;;4.56;89.26;103229.38;5033357;28;20045;-61
2022/01/18 08:43:14;;;;;;;45.80;22.95;;;;;;;4.69;88.53;103233.16;5033555;28;20042;-61
2022/01/18 08:45:41;;;;;;;46.65;21.77;;;;;;;4.79;87.07;103228.91;5045487;28;20042;-62
2022/01/18 08:48:09;;;;;;;46.58;22.00;;;;;;;4.95;87.41;103233.06;5032843;28;20052;-61
2022/01/18 08:50:38;;;;;;;42.45;20.50;;;;;;;4.83;87.46;103229.31;5028970;28;20738;-62
2022/01/18 08:53:08;;;;;;;48.72;22.38;;;;;;;5.03;86.81;103232.81;5029956;28;20048;-62
2022/01/18 08:55:36;;;;;;;47.92;22.33;;;;;;;4.75;87.03;103235.00;5031062;28;20053;-62
2022/01/18 08:58:04;;;;;;;44.67;21.38;;;;;;;4.57;88.04;103232.94;5030447;28;20061;-61
2022/01/18 09:00:32;;;;;;;49.23;22.13;;;;;;;4.58;88.30;103234.63;5026118;28;20413;-61
2022/01/18 09:03:00;;;;;;;47.45;20.92;;;;;;;4.72;87.98;103224.50;5032263;28;20037;-61
2022/01/18 09:05:28;;;;;;;44.85;22.33;;;;;;;5.03;87.27;103214.56;5018813;28;21362;-62
2022/01/18 09:07:59;;;;;;;47.45;22.63;;;;;;;5.17;86.23;103215.31;5032672;28;20057;-62
2022/01/18 09:10:27;;;;;;;42.55;21.20;;;;;;;5.45;85.35;103213.09;5024178;28;20711;-61
2022/01/18 09:12:54;;;;;;;47.22;20.92;;;;;;;5.18;84.53;103215.09;5032289;28;20041;-61
2022/01/18 09:15:24;;;;;;;52.88;22.08;;;;;;;5.26;85.08;103225.81;5029534;28;20041;-62
2022/01/18 09:17:52;;;;;;;56.70;23.48;;;;;;;5.35;85.54;103220.94;5024636;28;20053;-62
2022/01/18 09:20:20;;;;;;;46.35;23.05;;;;;;;5.43;84.44;103220.66;5030794;28;20515;-63
2022/01/18 09:22:48;;;;;;;49.38;22.63;;;;;;;5.41;84.33;103215.41;5024838;28;20046;-64
2022/01/18 09:25:19;;;;;;;67.07;33.88;;;;;;;5.47;84.50;103214.53;5031159;28;20650;-62
2022/01/18 09:27:47;;;;;;;63.92;29.27;;;;;;;5.63;83.78;103208.56;5031115;28;20441;-60
2022/01/18 09:30:15;;;;;;;48.95;23.73;;;;;;;5.78;83.12;103207.41;5030916;28;20042;-61
2022/01/18 09:32:44;;;;;;;52.97;22.65;;;;;;;6.04;82.57;103204.50;5035529;28;20046;-62
2022/01/18 09:35:13;;;;;;;53.80;22.52;;;;;;;6.13;81.39;103205.91;5030371;28;20057;-60
2022/01/18 09:37:42;;;;;;;44.35;22.52;;;;;;;6.10;82.06;103212.66;5028597;28;20050;-62
2022/01/18 09:40:10;;;;;;;48.25;21.70;;;;;;;6.29;81.02;103210.81;5009143;28;20050;-63
2022/01/18 09:42:40;;;;;;;44.83;20.45;;;;;;;5.85;83.75;103198.13;5031809;28;20068;-61
2022/01/18 09:45:11;;;;;;;38.10;19.00;;;;;;;6.03;84.34;103200.97;5028604;28;20045;-61
2022/01/18 09:47:40;;;;;;;50.83;18.58;;;;;;;6.12;84.31;103209.72;5032242;28;20049;-61
2022/01/18 09:50:10;;;;;;;41.77;18.77;;;;;;;6.21;84.36;103206.47;5021115;28;20054;-61
2022/01/18 09:52:38;;;;;;;39.92;18.00;;;;;;;6.22;84.36;103210.91;5030094;28;20269;-61
2022/01/18 09:55:07;;;;;;;40.38;18.42;;;;;;;6.39;83.55;103212.00;5029141;28;20047;-61
2022/01/18 09:57:36;;;;;;;37.40;19.42;;;;;;;6.33;84.05;103212.06;5038079;28;20509;-63
2022/01/18 10:00:08;;;;;;;40.67;19.35;;;;;;;6.43;83.79;103217.84;5032752;28;20072;-61
2022/01/18 10:02:39;;;;;;;43.95;18.27;;;;;;;6.52;83.54;103203.63;5033584;28;20049;-61
2022/01/18 10:05:17;;;;;;;38.15;19.10;;;;;;;6.47;83.60;103210.84;5030881;28;20676;-63
2022/01/18 10:07:54;;;;;;;37.33;18.08;;;;;;;6.76;83.35;103202.75;5016984;28;20064;-62
2022/01/18 10:10:54;;;;;;;39.28;20.30;;;;;;;6.73;82.71;103205.09;5031583;28;20399;-62
2022/01/18 10:13:33;;;;;;;37.00;18.75;;;;;;;6.68;82.88;103200.31;5034161;28;20048;-63
2022/01/18 10:16:14;;;;;;;42.63;18.95;;;;;;;6.86;82.74;103204.97;5033982;28;20054;-62
2022/01/18 10:18:50;;;;;;;35.25;17.33;;;;;;;6.80;82.77;103192.16;5024037;28;20050;-62
2022/01/18 10:21:34;;;;;;;38.55;17.75;;;;;;;6.88;82.55;103199.25;5025730;28;20227;-61
2022/01/18 10:24:21;;;;;;;39.97;18.10;;;;;;;6.94;82.39;103192.88;5035902;28;20041;-62
2022/01/18 10:26:54;;;;;;;41.80;19.75;;;;;;;7.11;81.57;103193.91;5039699;28;20068;-61
2022/01/18 10:29:33;;;;;;;44.45;18.35;;;;;;;7.00;81.87;103195.53;5035460;28;20053;-63
2022/01/18 10:32:10;;;;;;;39.70;19.52;;;;;;;7.13;81.88;103181.63;5043097;28;20053;-62
2022/01/18 10:35:04;;;;;;;41.28;18.20;;;;;;;7.23;81.11;103175.63;5043184;28;20057;-63
2022/01/18 10:37:30;;;;;;;41.95;18.45;;;;;;;7.22;81.37;103174.78;5033332;28;20060;-63
2022/01/18 10:40:01;;;;;;;32.70;17.13;;;;;;;7.23;81.03;103167.41;5031027;28;20061;-62
2022/01/18 10:42:41;;;;;;;37.83;17.70;;;;;;;7.37;80.50;103157.94;5015784;28;20068;-62
2022/01/18 10:45:12;;;;;;;42.25;17.70;;;;;;;7.46;80.32;103160.09;5034912;28;20436;-62
2022/01/18 10:47:57;;;;;;;38.22;18.40;;;;;;;7.44;79.92;103150.44;5032734;28;20045;-62
2022/01/18 10:50:26;;;;;;;41.08;17.65;;;;;;;7.46;79.62;103149.13;5030920;28;20048;-63
2022/01/18 10:52:53;;;;;;;36.38;18.20;;;;;;;7.41;79.32;103140.75;5013156;28;21794;-61
2022/01/18 10:55:24;;;;;;;38.72;18.25;;;;;;;7.46;80.15;103145.56;5033466;28;20045;-63
2022/01/18 10:57:52;;;;;;;46.42;19.60;;;;;;;7.53;78.91;103127.91;5034271;28;20061;-63
2022/01/18 11:00:25;;;;;;;41.47;18.10;;;;;;;7.64;78.50;103131.75;5027136;28;20050;-61
2022/01/18 11:02:55;;;;;;;37.15;18.20;;;;;;;7.67;77.88;103129.38;5047253;28;20049;-60
2022/01/18 11:05:29;;;;;;;40.00;18.17;;;;;;;7.86;77.96;103127.41;5035230;28;20041;-62
2022/01/18 11:08:03;;;;;;;42.15;18.52;;;;;;;7.85;77.00;103115.59;5020319;28;20049;-62
2022/01/18 11:10:50;;;;;;;43.35;17.70;;;;;;;7.78;77.48;103116.75;5034632;28;20065;-62
2022/01/18 11:13:35;;;;;;;39.75;17.50;;;;;;;7.99;76.57;103105.22;5030506;28;20829;-61
2022/01/18 11:16:12;;;;;;;32.35;17.48;;;;;;;8.05;75.85;103096.03;5029788;28;20056;-61
2022/01/18 11:18:45;;;;;;;35.40;17.02;;;;;;;8.05;75.62;103098.78;5031728;28;20055;-63
2022/01/18 11:21:13;;;;;;;40.33;15.60;;;;;;;7.96;75.33;103089.22;5025300;28;20057;-62
2022/01/18 11:23:41;;;;;;;33.00;15.90;;;;;;;8.17;74.66;103085.03;5028248;28;20057;-62
2022/01/18 11:26:10;;;;;;;24.33;12.95;;;;;;;7.91;73.65;103076.22;5000842;28;20045;-63
2022/01/18 11:28:38;;;;;;;25.70;12.35;;;;;;;7.99;74.11;103075.03;5034926;28;20064;-61
2022/01/18 11:31:10;;;;;;;24.38;10.68;;;;;;;7.97;72.89;103061.53;5033308;28;20056;-62
2022/01/18 11:33:49;;;;;;;26.20;11.70;;;;;;;8.12;72.74;103060.22;5033104;28;20072;-62
2022/01/18 11:36:20;;;;;;;23.70;11.82;;;;;;;8.23;72.69;103051.97;5020885;28;20046;-61
2022/01/18 11:38:59;;;;;;;21.65;10.02;;;;;;;8.29;71.50;103040.06;5030839;28;20041;-61
2022/01/18 11:41:30;;;;;;;24.97;10.90;;;;;;;8.35;70.85;103036.34;5033245;28;20057;-61
2022/01/18 11:43:59;;;;;;;23.13;9.98;;;;;;;8.32;70.97;103042.31;5029466;28;20056;-61
2022/01/18 11:46:34;;;;;;;18.50;9.27;;;;;;;8.45;70.17;103038.47;5032787;28;20056;-61
2022/01/18 11:49:07;;;;;;;18.25;8.32;;;;;;;8.39;69.17;103040.28;5033813;28;20076;-63
2022/01/18 11:52:00;;;;;;;22.38;8.48;;;;;;;8.40;69.24;103033.72;5031490;28;20065;-61
2022/01/18 11:54:40;;;;;;;15.48;7.57;;;;;;;8.46;68.84;103008.03;5040928;28;20080;-61
2022/01/18 11:57:23;;;;;;;;;;;;;;;8.42;68.27;103019.75;5029022;28;20103;-62
2022/01/18 11:59:58;;;;;;;16.77;7.60;;;;;;;8.67;67.76;103018.34;5011702;28;19993;-63
2022/01/18 12:02:38;;;;;;;16.30;7.63;;;;;;;8.65;66.99;103015.00;5011066;28;20057;-61
2022/01/18 12:05:13;;;;;;;20.70;8.80;;;;;;;8.62;67.33;103015.50;5003971;28;20047;-61
2022/01/18 12:07:43;;;;;;;23.85;7.57;;;;;;;8.59;67.02;103016.00;5014584;28;20058;-62
2022/01/18 12:10:19;;;;;;;24.67;7.15;;;;;;;8.59;66.50;103013.25;5010893;28;20050;-62
2022/01/18 12:12:50;;;;;;;15.40;6.28;;;;;;;8.55;66.03;103013.97;5014127;28;20052;-63
2022/01/18 12:15:22;;;;;;;14.93;7.15;;;;;;;8.71;65.98;103004.94;5008567;28;20409;-63
2022/01/18 12:17:54;;;;;;;18.73;6.82;;;;;;;8.69;65.68;102994.22;5005063;28;20057;-63
2022/01/18 12:20:38;;;;;;;18.55;7.15;;;;;;;8.84;65.55;102985.41;5013702;28;20049;-62
2022/01/18 12:23:20;;;;;;;16.38;7.18;;;;;;;8.87;65.48;102979.44;5013020;28;20385;-61
2022/01/18 12:26:01;;;;;;;21.58;7.50;;;;;;;8.88;65.46;102979.19;5012957;28;20050;-62
2022/01/18 12:34:32;;;;;;;18.05;6.57;;;;;;;8.86;64.83;102962.09;5001881;28;20666;-61
2022/01/18 12:37:05;;;;;;;19.15;7.10;;;;;;;8.80;64.81;102954.81;5014960;28;20057;-61
2022/01/18 12:45:05;;;;;;;16.35;7.88;;;;;;;8.81;65.73;102953.75;5012813;28;20054;-64
2022/01/18 12:47:37;;;;;;;16.67;7.85;;;;;;;8.92;65.77;102941.88;5013043;28;20061;-61
2022/01/18 12:50:08;;;;;;;16.90;7.25;;;;;;;9.04;66.54;102945.38;5014126;28;20058;-61